createdAt,value
2022-10-31T00:00:14.993Z,97422.25
2022-10-31T00:02:41.816Z,97424.06
2022-10-31T00:05:08.608Z,97435.88
2022-10-31T00:07:35.401Z,97452.84
2022-10-31T00:10:01.992Z,97409.59
2022-10-31T00:12:28.665Z,97448.28
2022-10-31T00:14:55.283Z,97450.66
2022-10-31T00:17:21.929Z,97439.91
2022-10-31T00:19:48.557Z,97462.94
2022-10-31T00:22:15.132Z,97436.84
2022-10-31T00:24:41.845Z,97448.97
2022-10-31T00:27:08.489Z,97448.94
2022-10-31T00:29:35.101Z,97426.41
2022-10-31T00:32:01.756Z,97440.38
2022-10-31T00:34:28.433Z,97420.53
2022-10-31T00:36:55.040Z,97438.47
2022-10-31T00:39:21.716Z,97445.97
2022-10-31T00:41:48.627Z,97417.28
2022-10-31T00:44:15.280Z,97414.59
2022-10-31T00:46:41.897Z,97423.44
2022-10-31T00:49:08.824Z,97410.31
2022-10-31T00:51:35.530Z,97421.00
2022-10-31T00:54:02.200Z,97424.69
2022-10-31T00:56:29.103Z,97442.91
2022-10-31T00:58:55.837Z,97442.31
2022-10-31T01:01:22.519Z,97449.84
2022-10-31T01:03:49.373Z,97452.31
2022-10-31T01:06:16.046Z,97423.34
2022-10-31T01:08:42.663Z,97422.53
2022-10-31T01:11:11.335Z,97434.88
2022-10-31T01:13:38.001Z,97424.91
2022-10-31T01:16:05.922Z,97429.47
2022-10-31T01:18:32.560Z,97424.34
2022-10-31T01:21:07.340Z,97429.72
2022-10-31T01:23:34.141Z,97399.94
2022-10-31T01:26:15.134Z,97426.16
2022-10-31T01:28:46.990Z,97431.75
2022-10-31T01:31:13.748Z,97455.38
2022-10-31T01:33:40.454Z,97432.03
2022-10-31T01:36:14.031Z,97441.44
2022-10-31T01:38:40.868Z,97433.19
2022-10-31T01:41:07.427Z,97436.66
2022-10-31T01:43:54.340Z,97422.41
2022-10-31T01:46:30.045Z,97419.47
2022-10-31T01:48:56.659Z,97426.44
2022-10-31T01:51:25.879Z,97418.19
2022-10-31T01:53:52.943Z,97404.75
2022-10-31T01:56:19.512Z,97438.75
2022-10-31T01:58:46.669Z,97454.06
2022-10-31T02:01:13.729Z,97442.81
2022-10-31T02:03:40.605Z,97435.34
2022-10-31T02:06:08.765Z,97449.34
2022-10-31T02:08:36.589Z,97422.97
2022-10-31T02:11:03.514Z,97451.72
2022-10-31T02:13:30.170Z,97453.47
2022-10-31T02:15:58.694Z,97428.84
2022-10-31T02:18:26.058Z,97450.28
2022-10-31T02:21:16.462Z,97430.38
2022-10-31T02:24:04.617Z,97425.03
2022-10-31T02:26:50.335Z,97432.53
2022-10-31T02:29:40.839Z,97464.72
2022-10-31T02:32:28.415Z,97428.56
2022-10-31T02:35:16.213Z,97427.19
2022-10-31T02:37:50.258Z,97416.97
2022-10-31T02:40:20.017Z,97399.00
2022-10-31T02:42:59.235Z,97441.66
2022-10-31T02:45:34.637Z,97442.22
2022-10-31T02:48:03.336Z,97445.84
2022-10-31T02:50:32.512Z,97437.31
2022-10-31T02:52:59.220Z,97447.50
2022-10-31T02:55:25.688Z,97458.25
2022-10-31T02:57:53.806Z,97449.72
2022-10-31T03:00:20.426Z,97443.56
2022-10-31T03:02:59.116Z,97453.03
2022-10-31T03:05:37.636Z,97444.47
2022-10-31T03:08:16.220Z,97449.63
2022-10-31T03:10:44.566Z,97441.06
2022-10-31T03:13:20.857Z,97467.84
2022-10-31T03:15:50.571Z,97462.75
2022-10-31T03:18:30.871Z,97450.38
2022-10-31T03:21:05.535Z,97450.38
2022-10-31T03:23:33.560Z,97437.25
2022-10-31T03:26:00.831Z,97452.31
2022-10-31T03:28:31.565Z,97478.31
2022-10-31T03:30:58.231Z,97441.53
2022-10-31T03:33:28.196Z,97451.44
2022-10-31T03:35:55.962Z,97456.38
2022-10-31T03:38:22.841Z,97429.22
2022-10-31T03:40:49.610Z,97428.41
2022-10-31T03:43:18.653Z,97446.94
2022-10-31T03:45:46.602Z,97452.06
2022-10-31T03:48:14.475Z,97462.81
2022-10-31T03:50:47.051Z,97450.44
2022-10-31T03:53:30.842Z,97478.94
2022-10-31T03:56:12.988Z,97472.25
2022-10-31T03:58:49.300Z,97453.22
2022-10-31T04:01:17.176Z,97460.72
2022-10-31T04:03:43.905Z,97499.84
2022-10-31T04:06:11.555Z,97455.34
2022-10-31T04:08:49.383Z,97464.72
2022-10-31T04:11:16.232Z,97467.69
2022-10-31T04:13:42.895Z,97446.78
2022-10-31T04:16:12.691Z,97468.78
2022-10-31T04:18:42.701Z,97468.25
2022-10-31T04:21:09.510Z,97469.91
2022-10-31T04:23:36.911Z,97475.56
2022-10-31T04:26:03.614Z,97463.22
2022-10-31T04:28:30.213Z,97459.44
2022-10-31T04:30:56.899Z,97486.06
2022-10-31T04:33:23.534Z,97490.34
2022-10-31T04:35:50.199Z,97461.41
2022-10-31T04:38:16.781Z,97470.56
2022-10-31T04:40:43.430Z,97464.13
2022-10-31T04:43:10.434Z,97468.44
2022-10-31T04:45:37.839Z,97485.34
2022-10-31T04:48:04.891Z,97469.00
2022-10-31T04:50:31.605Z,97460.41
2022-10-31T04:52:58.306Z,97448.59
2022-10-31T04:55:24.918Z,97473.31
2022-10-31T04:57:51.604Z,97463.09
2022-10-31T05:00:19.460Z,97472.53
2022-10-31T05:02:48.954Z,97465.81
2022-10-31T05:05:16.305Z,97483.00
2022-10-31T05:07:43.381Z,97469.59
2022-10-31T05:10:14.267Z,97487.88
2022-10-31T05:12:54.242Z,97465.84
2022-10-31T05:15:21.728Z,97484.66
2022-10-31T05:17:48.436Z,97445.16
2022-10-31T05:20:15.875Z,97465.28
2022-10-31T05:22:50.145Z,97475.00
2022-10-31T05:25:16.959Z,97477.13
2022-10-31T05:27:44.944Z,97466.91
2022-10-31T05:30:12.673Z,97446.75
2022-10-31T05:32:42.610Z,97477.34
2022-10-31T05:35:11.742Z,97436.75
2022-10-31T05:37:38.530Z,97472.47
2022-10-31T05:40:10.049Z,97462.03
2022-10-31T05:42:36.665Z,97462.03
2022-10-31T05:45:03.455Z,97461.97
2022-10-31T05:47:30.085Z,97460.63
2022-10-31T05:49:56.766Z,97477.00
2022-10-31T05:52:23.390Z,97471.13
2022-10-31T05:54:50.213Z,97465.50
2022-10-31T05:57:16.885Z,97465.22
2022-10-31T05:59:43.935Z,97493.16
2022-10-31T06:02:10.639Z,97458.78
2022-10-31T06:04:37.373Z,97457.97
2022-10-31T06:07:04.033Z,97468.47
2022-10-31T06:09:30.653Z,97464.97
2022-10-31T06:11:57.316Z,97474.13
2022-10-31T06:14:23.890Z,97463.66
2022-10-31T06:16:50.608Z,97471.19
2022-10-31T06:19:17.219Z,97462.56
2022-10-31T06:21:44.084Z,97487.06
2022-10-31T06:24:10.805Z,97472.81
2022-10-31T06:26:37.451Z,97452.69
2022-10-31T06:29:04.387Z,97469.88
2022-10-31T06:31:31.207Z,97484.94
2022-10-31T06:33:57.893Z,97500.78
2022-10-31T06:36:24.786Z,97480.38
2022-10-31T06:38:51.463Z,97487.63
2022-10-31T06:41:18.061Z,97467.78
2022-10-31T06:43:47.481Z,97464.81
2022-10-31T06:46:14.164Z,97477.75
2022-10-31T06:48:43.959Z,97478.78
2022-10-31T06:51:11.022Z,97479.09
2022-10-31T06:53:37.626Z,97483.94
2022-10-31T06:56:04.445Z,97493.31
2022-10-31T06:58:31.109Z,97505.72
2022-10-31T07:01:00.824Z,97484.47
2022-10-31T07:03:27.467Z,97474.50
2022-10-31T07:05:56.298Z,97492.53
2022-10-31T07:08:23.152Z,97518.31
2022-10-31T07:10:54.362Z,97483.41
2022-10-31T07:13:21.166Z,97497.91
2022-10-31T07:15:47.838Z,97489.81
2022-10-31T07:18:14.449Z,97490.91
2022-10-31T07:20:41.198Z,97471.00
2022-10-31T07:23:09.287Z,97505.19
2022-10-31T07:25:35.894Z,97492.50
2022-10-31T07:28:02.898Z,97505.16
2022-10-31T07:30:29.852Z,97512.94
2022-10-31T07:32:56.549Z,97499.22
2022-10-31T07:35:24.810Z,97487.94
2022-10-31T07:37:51.602Z,97477.13
2022-10-31T07:40:18.458Z,97484.41
2022-10-31T07:42:46.543Z,97482.22
2022-10-31T07:45:15.540Z,97495.94
2022-10-31T07:47:45.095Z,97508.84
2022-10-31T07:50:14.579Z,97495.13
2022-10-31T07:52:41.674Z,97496.47
2022-10-31T07:55:08.408Z,97503.50
2022-10-31T07:57:35.071Z,97475.16
2022-10-31T08:00:01.862Z,97484.31
2022-10-31T08:02:28.734Z,97470.28
2022-10-31T08:04:58.592Z,97481.81
2022-10-31T08:07:27.879Z,97489.09
2022-10-31T08:09:54.720Z,97455.69
2022-10-31T08:12:22.719Z,97475.09
2022-10-31T08:14:49.762Z,97481.78
2022-10-31T08:17:16.436Z,97484.72
2022-10-31T08:19:43.148Z,97485.25
2022-10-31T08:22:09.978Z,97483.31
2022-10-31T08:24:36.724Z,97474.91
2022-10-31T08:27:03.365Z,97471.66
2022-10-31T08:29:31.015Z,97456.22
2022-10-31T08:31:58.855Z,97471.28
2022-10-31T08:34:25.630Z,97458.28
2022-10-31T08:36:53.019Z,97458.00
2022-10-31T08:39:19.657Z,97448.00
2022-10-31T08:41:48.011Z,97480.34
2022-10-31T08:44:14.769Z,97458.41
2022-10-31T08:46:41.327Z,97464.53
2022-10-31T08:49:08.034Z,97465.78
2022-10-31T08:51:34.667Z,97453.31
2022-10-31T08:54:01.328Z,97460.47
2022-10-31T08:56:27.962Z,97455.06
2022-10-31T08:58:54.717Z,97468.38
2022-10-31T09:01:21.564Z,97452.81
2022-10-31T09:03:49.940Z,97444.56
2022-10-31T09:06:16.737Z,97454.72
2022-10-31T09:08:43.394Z,97446.56
2022-10-31T09:11:10.016Z,97452.84
2022-10-31T09:13:41.320Z,97433.41
2022-10-31T09:16:08.340Z,97432.28
2022-10-31T09:18:34.969Z,97421.63
2022-10-31T09:21:01.714Z,97429.72
2022-10-31T09:23:28.363Z,97424.91
2022-10-31T09:25:55.083Z,97428.03
2022-10-31T09:28:23.345Z,97443.97
2022-10-31T09:30:51.518Z,97446.03
2022-10-31T09:33:18.451Z,97431.44
2022-10-31T09:35:45.097Z,97428.00
2022-10-31T09:38:12.368Z,97434.56
2022-10-31T09:40:47.049Z,97411.66
2022-10-31T09:43:20.907Z,97426.13
2022-10-31T09:46:08.522Z,97438.84
2022-10-31T09:49:05.988Z,97459.13
2022-10-31T09:51:38.549Z,97408.09
2022-10-31T09:54:13.556Z,97451.00
2022-10-31T09:56:40.266Z,97439.59
2022-10-31T09:59:20.174Z,97442.28
2022-10-31T10:01:50.725Z,97430.63
2022-10-31T10:04:38.593Z,97472.84
2022-10-31T10:07:15.307Z,97406.66
2022-10-31T10:09:41.992Z,97408.94
2022-10-31T10:12:17.798Z,97427.84
2022-10-31T10:14:59.302Z,97396.56
2022-10-31T10:17:37.650Z,97416.56
2022-10-31T10:20:23.004Z,97407.06
2022-10-31T10:22:59.410Z,97404.47
2022-10-31T10:25:39.667Z,97414.44
2022-10-31T10:28:22.433Z,97401.13
2022-10-31T10:30:56.818Z,97410.28
2022-10-31T10:33:31.658Z,97404.38
2022-10-31T10:36:02.442Z,97397.47
2022-10-31T10:38:38.375Z,97393.38
2022-10-31T10:41:07.552Z,97388.47
2022-10-31T10:43:35.128Z,97381.59
2022-10-31T10:46:09.213Z,97388.66
2022-10-31T10:48:46.400Z,97368.13
2022-10-31T10:52:02.155Z,97405.31
2022-10-31T10:54:59.325Z,97351.63
2022-10-31T10:57:39.180Z,97364.88
2022-10-31T11:00:20.411Z,97387.00
2022-10-31T11:02:49.091Z,97374.00
2022-10-31T11:05:47.457Z,97366.66
2022-10-31T11:08:27.528Z,97353.44
2022-10-31T11:11:04.817Z,97359.25
2022-10-31T11:13:32.109Z,97351.81
2022-10-31T11:15:58.555Z,97363.72
2022-10-31T11:18:30.743Z,97360.16
2022-10-31T11:20:59.851Z,97374.31
2022-10-31T11:23:27.710Z,97358.47
2022-10-31T11:25:58.883Z,97342.34
2022-10-31T11:28:26.241Z,97349.53
2022-10-31T11:30:56.658Z,97363.41
2022-10-31T11:33:38.826Z,97338.22
2022-10-31T11:36:22.291Z,97349.25
2022-10-31T11:38:48.965Z,97356.06
2022-10-31T11:41:19.851Z,97337.84
2022-10-31T11:43:49.571Z,97337.13
2022-10-31T11:46:22.752Z,97349.47
2022-10-31T11:48:50.214Z,97326.19
2022-10-31T11:51:25.778Z,97336.81
2022-10-31T11:53:56.783Z,97307.53
2022-10-31T11:56:26.820Z,97326.59
2022-10-31T11:59:02.364Z,97317.66
2022-10-31T12:01:30.713Z,97318.16
2022-10-31T12:04:07.220Z,97304.25
2022-10-31T12:06:38.160Z,97301.13
2022-10-31T12:09:25.160Z,97299.75
2022-10-31T12:12:29.560Z,97286.47
2022-10-31T12:15:21.017Z,97314.16
2022-10-31T12:18:05.686Z,97280.66
2022-10-31T12:20:53.951Z,97283.78
2022-10-31T12:23:39.658Z,97279.06
2022-10-31T12:26:27.379Z,97264.44
2022-10-31T12:29:13.690Z,97280.97
2022-10-31T12:31:59.081Z,97244.16
2022-10-31T12:34:49.487Z,97256.44
2022-10-31T12:37:34.208Z,97254.72
2022-10-31T12:40:12.866Z,97248.72
2022-10-31T12:42:48.080Z,97267.84
2022-10-31T12:45:29.007Z,97268.84
2022-10-31T12:48:05.370Z,97239.34
2022-10-31T12:51:05.554Z,97240.28
2022-10-31T12:53:41.174Z,97249.91
2022-10-31T12:56:21.579Z,97234.78
2022-10-31T12:59:00.918Z,97249.19
2022-10-31T13:01:36.660Z,97238.19
2022-10-31T13:04:13.386Z,97241.00
2022-10-31T13:06:44.930Z,97252.53
2022-10-31T13:09:14.658Z,97240.88
2022-10-31T13:11:58.323Z,97228.66
2022-10-31T13:14:28.019Z,97224.69
2022-10-31T13:16:55.054Z,97244.41
2022-10-31T13:19:23.412Z,97228.06
2022-10-31T13:22:18.586Z,97226.78
2022-10-31T13:25:03.285Z,97222.16
2022-10-31T13:27:36.328Z,97231.16
2022-10-31T13:30:19.213Z,97216.53
2022-10-31T13:32:48.688Z,97234.38
2022-10-31T13:35:27.302Z,97200.91
2022-10-31T13:38:06.661Z,97232.38
2022-10-31T13:40:35.322Z,97223.34
2022-10-31T13:43:23.314Z,97186.09
2022-10-31T13:45:51.657Z,97199.63
2022-10-31T13:48:19.254Z,97217.44
2022-10-31T13:51:06.338Z,97204.53
2022-10-31T13:53:46.765Z,97199.91
2022-10-31T13:56:16.552Z,97217.84
2022-10-31T13:59:12.124Z,97185.25
2022-10-31T14:01:39.001Z,97196.47
2022-10-31T14:04:24.887Z,97185.16
2022-10-31T14:07:11.419Z,97177.25
2022-10-31T14:09:56.110Z,97187.91
2022-10-31T14:12:30.446Z,97171.88
2022-10-31T14:15:05.280Z,97150.53
2022-10-31T14:17:39.477Z,97183.69
2022-10-31T14:20:11.924Z,97173.34
2022-10-31T14:22:42.823Z,97151.72
2022-10-31T14:25:45.351Z,97171.97
2022-10-31T14:28:34.485Z,97166.34
2022-10-31T14:31:01.204Z,97172.88
2022-10-31T14:33:29.135Z,97168.06
2022-10-31T14:36:20.063Z,97164.66
2022-10-31T14:39:18.494Z,97170.06
2022-10-31T14:42:12.609Z,97181.06
2022-10-31T14:44:52.497Z,97149.44
2022-10-31T14:48:10.695Z,97159.75
2022-10-31T14:50:55.759Z,97165.34
2022-10-31T14:53:23.606Z,97137.81
2022-10-31T14:55:51.499Z,97132.19
2022-10-31T14:58:21.455Z,97151.31
2022-10-31T15:00:48.723Z,97140.50
2022-10-31T15:03:18.252Z,97153.94
2022-10-31T15:05:53.394Z,97114.31
2022-10-31T15:08:46.979Z,97145.44
2022-10-31T15:11:15.662Z,97133.09
2022-10-31T15:13:55.437Z,97163.16
2022-10-31T15:16:33.427Z,97121.91
2022-10-31T15:19:01.557Z,97107.91
2022-10-31T15:21:29.348Z,97119.38
2022-10-31T15:23:58.800Z,97128.28
2022-10-31T15:26:32.047Z,97121.41
2022-10-31T15:29:05.932Z,97120.78
2022-10-31T15:31:32.800Z,97133.00
2022-10-31T15:34:06.699Z,97109.28
2022-10-31T15:36:37.299Z,97136.88
2022-10-31T15:39:04.980Z,97105.34
2022-10-31T15:41:33.311Z,97107.91
2022-10-31T15:44:07.482Z,97088.59
2022-10-31T15:46:34.124Z,97116.72
2022-10-31T15:49:00.760Z,97082.19
2022-10-31T15:51:32.131Z,97114.09
2022-10-31T15:53:58.881Z,97090.09
2022-10-31T15:56:28.385Z,97107.09
2022-10-31T15:58:55.452Z,97098.56
2022-10-31T16:01:28.826Z,97093.47
2022-10-31T16:04:02.860Z,97101.25
2022-10-31T16:06:29.664Z,97072.25
2022-10-31T16:08:56.292Z,97080.47
2022-10-31T16:11:37.866Z,97085.44
2022-10-31T16:14:07.403Z,97107.91
2022-10-31T16:16:36.247Z,97096.59
2022-10-31T16:19:04.870Z,97092.38
2022-10-31T16:21:36.727Z,97097.78
2022-10-31T16:24:21.450Z,97068.97
2022-10-31T16:26:52.330Z,97084.38
2022-10-31T16:29:49.463Z,97078.84
2022-10-31T16:32:36.315Z,97084.53
2022-10-31T16:35:02.812Z,97082.84
2022-10-31T16:37:29.554Z,97088.84
2022-10-31T16:39:56.248Z,97084.31
2022-10-31T16:42:22.928Z,97096.19
2022-10-31T16:44:49.581Z,97067.72
2022-10-31T16:47:17.123Z,97094.16
2022-10-31T16:49:44.315Z,97062.47
2022-10-31T16:52:10.988Z,97090.81
2022-10-31T16:54:37.688Z,97050.66
2022-10-31T16:57:04.992Z,97087.03
2022-10-31T16:59:32.295Z,97064.22
2022-10-31T17:01:59.060Z,97069.38
2022-10-31T17:04:26.118Z,97113.19
2022-10-31T17:06:52.761Z,97103.56
2022-10-31T17:09:19.509Z,97082.66
2022-10-31T17:11:49.790Z,97082.75
2022-10-31T17:14:17.500Z,97086.28
2022-10-31T17:16:44.143Z,97098.75
2022-10-31T17:19:11.640Z,97096.63
2022-10-31T17:21:38.289Z,97076.47
2022-10-31T17:24:05.096Z,97119.53
2022-10-31T17:26:31.749Z,97063.03
2022-10-31T17:28:58.319Z,97081.41
2022-10-31T17:31:29.418Z,97100.91
2022-10-31T17:34:02.132Z,97090.78
2022-10-31T17:36:32.147Z,97065.28
2022-10-31T17:38:58.770Z,97061.97
2022-10-31T17:41:25.466Z,97088.47
2022-10-31T17:43:56.295Z,97062.19
2022-10-31T17:46:22.908Z,97070.88
2022-10-31T17:48:49.575Z,97077.88
2022-10-31T17:51:16.256Z,97080.13
2022-10-31T17:53:43.114Z,97074.84
2022-10-31T17:56:10.493Z,97095.13
2022-10-31T17:58:37.199Z,97086.81
2022-10-31T18:01:08.750Z,97080.34
2022-10-31T18:03:35.486Z,97073.97
2022-10-31T18:06:02.133Z,97081.28
2022-10-31T18:08:33.345Z,97065.31
2022-10-31T18:11:00.253Z,97084.41
2022-10-31T18:13:27.715Z,97069.84
2022-10-31T18:15:54.763Z,97086.28
2022-10-31T18:18:21.691Z,97069.38
2022-10-31T18:20:48.311Z,97081.81
2022-10-31T18:23:14.946Z,97062.00
2022-10-31T18:25:41.525Z,97064.50
2022-10-31T18:28:08.316Z,97066.69
2022-10-31T18:30:34.970Z,97062.69
2022-10-31T18:33:01.672Z,97057.31
2022-10-31T18:35:28.525Z,97103.84
2022-10-31T18:37:56.910Z,97048.25
2022-10-31T18:40:25.911Z,97064.13
2022-10-31T18:42:53.702Z,97044.56
2022-10-31T18:45:33.847Z,97052.38
2022-10-31T18:48:06.932Z,97041.91
2022-10-31T18:50:33.683Z,97070.41
2022-10-31T18:53:00.672Z,97057.56
2022-10-31T18:55:27.480Z,97063.69
2022-10-31T18:57:54.962Z,97050.88
2022-10-31T19:00:21.657Z,97050.09
2022-10-31T19:02:48.285Z,97055.50
2022-10-31T19:05:14.915Z,97068.97
2022-10-31T19:07:41.622Z,97027.59
2022-10-31T19:10:08.662Z,97043.44
2022-10-31T19:12:35.232Z,97050.72
2022-10-31T19:15:01.896Z,97055.56
2022-10-31T19:17:28.565Z,97044.03
2022-10-31T19:19:55.155Z,97053.41
2022-10-31T19:22:21.843Z,97029.81
2022-10-31T19:24:48.403Z,97063.38
2022-10-31T19:27:15.324Z,97052.63
2022-10-31T19:29:41.915Z,97035.78
2022-10-31T19:32:08.841Z,97053.72
2022-10-31T19:34:35.460Z,97026.94
2022-10-31T19:37:02.098Z,97050.28
2022-10-31T19:39:28.692Z,97037.41
2022-10-31T19:41:55.743Z,97036.88
2022-10-31T19:44:22.474Z,97046.25
2022-10-31T19:46:53.668Z,97036.84
2022-10-31T19:49:20.566Z,97029.88
2022-10-31T19:51:47.279Z,97043.84
2022-10-31T19:54:13.976Z,97055.09
2022-10-31T19:56:40.697Z,97056.22
2022-10-31T19:59:07.480Z,97048.41
2022-10-31T20:01:34.231Z,97051.63
2022-10-31T20:04:00.852Z,97044.13
2022-10-31T20:06:29.152Z,97049.75
2022-10-31T20:08:56.007Z,97057.25
2022-10-31T20:11:24.235Z,97066.66
2022-10-31T20:13:51.016Z,97072.53
2022-10-31T20:16:17.696Z,97082.47
2022-10-31T20:18:45.494Z,97030.69
2022-10-31T20:21:23.823Z,97032.59
2022-10-31T20:23:57.006Z,97026.16
2022-10-31T20:26:23.826Z,97046.00
2022-10-31T20:28:50.546Z,97051.06
2022-10-31T20:31:19.879Z,97047.63
2022-10-31T20:33:47.242Z,97058.06
2022-10-31T20:36:14.547Z,97040.13
2022-10-31T20:38:42.074Z,97019.75
2022-10-31T20:41:09.829Z,97066.94
2022-10-31T20:43:36.598Z,97052.47
2022-10-31T20:46:07.803Z,97062.66
2022-10-31T20:48:35.694Z,97039.59
2022-10-31T20:51:03.996Z,97082.25
2022-10-31T20:53:32.044Z,97026.47
2022-10-31T20:56:07.481Z,97067.72
2022-10-31T20:58:35.304Z,97050.31
2022-10-31T21:01:02.137Z,97023.50
2022-10-31T21:03:28.963Z,97041.97
2022-10-31T21:05:57.266Z,97048.69
2022-10-31T21:08:23.949Z,97046.28
2022-10-31T21:10:50.755Z,97048.13
2022-10-31T21:13:17.487Z,97026.69
2022-10-31T21:15:44.131Z,97057.25
2022-10-31T21:18:10.884Z,97037.38
2022-10-31T21:20:41.686Z,97049.75
2022-10-31T21:23:08.297Z,97044.91
2022-10-31T21:25:38.078Z,97031.50
2022-10-31T21:28:04.795Z,97038.50
2022-10-31T21:30:31.574Z,97029.66
2022-10-31T21:32:58.202Z,97030.44
2022-10-31T21:35:25.286Z,97024.53
2022-10-31T21:37:51.982Z,97032.09
2022-10-31T21:40:18.585Z,97043.59
2022-10-31T21:42:45.270Z,97035.28
2022-10-31T21:45:11.864Z,97056.75
2022-10-31T21:47:38.481Z,97067.72
2022-10-31T21:50:06.681Z,97042.25
2022-10-31T21:52:34.451Z,97038.50
2022-10-31T21:55:01.094Z,97018.66
2022-10-31T21:57:27.715Z,97065.56
2022-10-31T21:59:54.327Z,97050.00
2022-10-31T22:02:21.031Z,97039.53
2022-10-31T22:04:47.630Z,97015.91
2022-10-31T22:07:14.208Z,97034.16
2022-10-31T22:09:41.628Z,97039.25
2022-10-31T22:12:08.257Z,97034.44
2022-10-31T22:14:34.927Z,96980.75
2022-10-31T22:17:01.766Z,97008.97
2022-10-31T22:19:28.321Z,97010.84
2022-10-31T22:21:54.930Z,97016.50
2022-10-31T22:24:21.600Z,97010.88
2022-10-31T22:26:48.277Z,97008.19
2022-10-31T22:29:20.581Z,97030.47
2022-10-31T22:31:50.620Z,96996.66
2022-10-31T22:34:20.189Z,97021.34
2022-10-31T22:36:46.847Z,97036.38
2022-10-31T22:39:13.425Z,97021.09
2022-10-31T22:41:40.076Z,97011.16
2022-10-31T22:44:06.780Z,96987.03
2022-10-31T22:46:35.291Z,96990.81
2022-10-31T22:49:04.371Z,97005.53
2022-10-31T22:51:33.588Z,96980.09
2022-10-31T22:54:00.259Z,96988.94
2022-10-31T22:56:29.253Z,96992.69
2022-10-31T22:58:55.895Z,97007.44
2022-10-31T23:01:28.390Z,97022.97
2022-10-31T23:03:55.155Z,97029.44
2022-10-31T23:06:24.562Z,97027.78
2022-10-31T23:08:51.451Z,97007.69
2022-10-31T23:11:22.735Z,97010.66
2022-10-31T23:13:50.712Z,97021.66
2022-10-31T23:16:17.463Z,97023.25
2022-10-31T23:18:50.247Z,97036.91
2022-10-31T23:21:17.418Z,96978.22
2022-10-31T23:23:44.054Z,97005.56
2022-10-31T23:26:10.622Z,96996.72
2022-10-31T23:28:37.271Z,97031.28
2022-10-31T23:31:03.916Z,97013.59
2022-10-31T23:33:31.536Z,97004.47
2022-10-31T23:35:59.322Z,96984.66
2022-10-31T23:38:26.355Z,96991.91
2022-10-31T23:40:53.279Z,96988.16
2022-10-31T23:43:20.219Z,96983.59
2022-10-31T23:45:46.754Z,96998.31
2022-10-31T23:48:13.670Z,97001.03
2022-10-31T23:50:40.294Z,96979.03
2022-10-31T23:53:08.415Z,96981.72
2022-10-31T23:55:35.091Z,96992.97
2022-10-31T23:58:01.827Z,96965.09
